createdAt,value
2022-11-17T00:00:27.402Z,2.22
2022-11-17T00:05:20.887Z,1.40
2022-11-17T00:07:48.988Z,1.88
2022-11-17T00:10:16.818Z,1.90
2022-11-17T00:13:01.968Z,2.28
2022-11-17T00:15:29.131Z,1.63
2022-11-17T00:18:14.413Z,1.85
2022-11-17T00:21:00.452Z,2.00
2022-11-17T00:23:46.763Z,2.30
2022-11-17T00:26:18.432Z,1.58
2022-11-17T00:28:45.350Z,2.10
2022-11-17T00:31:31.616Z,1.90
2022-11-17T00:34:07.570Z,2.08
2022-11-17T00:36:46.497Z,2.10
2022-11-17T00:39:15.384Z,2.20
2022-11-17T00:41:42.352Z,1.98
2022-11-17T00:44:09.312Z,2.30
2022-11-17T00:46:37.377Z,2.20
2022-11-17T00:49:05.850Z,2.00
2022-11-17T00:51:33.085Z,2.35
2022-11-17T00:54:00.226Z,2.35
2022-11-17T00:56:27.335Z,2.60
2022-11-17T00:58:54.298Z,2.58
2022-11-17T01:01:21.430Z,2.85
2022-11-17T01:03:48.475Z,2.90
2022-11-17T01:06:17.586Z,2.75
2022-11-17T01:08:44.397Z,2.88
2022-11-17T01:11:13.731Z,2.90
2022-11-17T01:13:41.505Z,2.53
2022-11-17T01:16:14.487Z,2.50
2022-11-17T01:18:42.383Z,2.40
2022-11-17T01:21:12.468Z,2.20
2022-11-17T01:23:40.843Z,2.83
2022-11-17T01:26:10.951Z,2.85
2022-11-17T01:28:38.417Z,3.22
2022-11-17T01:31:14.380Z,2.63
2022-11-17T01:33:41.568Z,2.65
2022-11-17T01:36:15.500Z,2.30
2022-11-17T01:38:43.021Z,2.30
2022-11-17T01:41:25.723Z,1.85
2022-11-17T01:44:19.111Z,2.00
2022-11-17T01:46:46.396Z,1.60
2022-11-17T01:49:25.075Z,2.15
2022-11-17T01:52:00.924Z,2.60
2022-11-17T01:54:30.316Z,2.38
2022-11-17T01:57:02.694Z,2.40
2022-11-17T01:59:54.243Z,2.13
2022-11-17T02:02:21.210Z,2.13
2022-11-17T02:04:59.935Z,1.42
2022-11-17T02:07:31.012Z,2.05
2022-11-17T02:09:59.313Z,2.80
2022-11-17T02:12:27.420Z,2.08
2022-11-17T02:14:54.772Z,1.88
2022-11-17T02:20:22.204Z,2.10
2022-11-17T02:23:00.809Z,1.80
2022-11-17T02:25:36.851Z,2.63
2022-11-17T02:28:20.767Z,2.30
2022-11-17T02:31:10.884Z,1.98
2022-11-17T02:34:21.102Z,1.90
2022-11-17T02:36:58.575Z,1.75
2022-11-17T02:39:40.513Z,2.15
2022-11-17T02:42:52.524Z,1.88
2022-11-17T02:45:24.815Z,2.90
2022-11-17T02:47:54.636Z,2.53
2022-11-17T02:50:28.004Z,1.60
2022-11-17T02:52:55.584Z,1.98
2022-11-17T02:55:22.292Z,2.10
2022-11-17T02:57:49.748Z,1.40
2022-11-17T03:00:18.723Z,2.20
2022-11-17T03:02:54.151Z,2.20
2022-11-17T03:05:42.360Z,2.97
2022-11-17T03:08:17.158Z,4.00
2022-11-17T03:11:12.056Z,3.22
2022-11-17T03:13:39.461Z,3.38
2022-11-17T03:16:15.216Z,3.00
2022-11-17T03:18:53.128Z,3.15
2022-11-17T03:24:21.037Z,3.08
2022-11-17T03:26:53.386Z,3.03
2022-11-17T03:29:23.011Z,3.10
2022-11-17T03:31:52.283Z,3.45
2022-11-17T03:34:23.556Z,3.03
2022-11-17T03:36:55.700Z,3.00
2022-11-17T03:39:29.405Z,3.33
2022-11-17T03:42:05.221Z,3.10
2022-11-17T03:44:35.373Z,3.47
2022-11-17T03:47:05.578Z,3.58
2022-11-17T03:49:50.061Z,3.08
2022-11-17T03:52:17.284Z,3.30
2022-11-17T03:54:44.022Z,3.08
2022-11-17T03:57:48.786Z,3.03
2022-11-17T04:00:18.001Z,3.45
2022-11-17T04:02:47.774Z,3.80
2022-11-17T04:05:17.482Z,3.15
2022-11-17T04:07:46.933Z,3.50
2022-11-17T04:10:15.672Z,4.13
2022-11-17T04:13:01.259Z,3.58
2022-11-17T04:15:46.687Z,3.80
2022-11-17T04:18:14.036Z,3.47
2022-11-17T04:23:14.030Z,3.10
2022-11-17T04:26:04.835Z,3.72
2022-11-17T04:28:36.880Z,3.78
2022-11-17T04:31:14.874Z,3.35
2022-11-17T04:36:13.790Z,3.65
2022-11-17T04:38:44.957Z,3.17
2022-11-17T04:41:31.807Z,3.65
2022-11-17T04:43:59.094Z,3.55
2022-11-17T04:46:26.434Z,3.20
2022-11-17T04:51:21.894Z,3.20
2022-11-17T04:53:48.900Z,3.35
2022-11-17T04:56:16.186Z,3.33
2022-11-17T04:58:43.371Z,3.60
2022-11-17T05:01:12.841Z,3.17
2022-11-17T05:04:00.529Z,3.05
2022-11-17T05:06:41.283Z,3.17
2022-11-17T05:09:13.800Z,3.05
2022-11-17T05:11:58.958Z,2.83
2022-11-17T05:14:28.155Z,2.50
2022-11-17T05:17:10.768Z,2.58
2022-11-17T05:19:42.044Z,2.70
2022-11-17T05:22:28.916Z,2.90
2022-11-17T05:24:56.228Z,2.45
2022-11-17T05:29:50.196Z,2.83
2022-11-17T05:32:17.389Z,2.50
2022-11-17T05:34:44.075Z,2.45
2022-11-17T05:37:10.854Z,2.17
2022-11-17T05:39:37.540Z,4.82
2022-11-17T05:42:04.436Z,4.80
2022-11-17T05:44:31.120Z,3.33
2022-11-17T05:46:57.924Z,3.63
2022-11-17T05:49:24.603Z,4.15
2022-11-17T05:51:52.851Z,3.08
2022-11-17T05:54:20.320Z,4.30
2022-11-17T05:56:52.550Z,4.78
2022-11-17T05:59:44.616Z,5.18
2022-11-17T06:02:19.567Z,4.88
2022-11-17T06:04:48.493Z,4.32
2022-11-17T06:07:17.711Z,3.88
2022-11-17T06:09:45.691Z,4.05
2022-11-17T06:12:12.444Z,5.18
2022-11-17T06:14:39.759Z,4.55
2022-11-17T06:19:43.895Z,4.88
2022-11-17T06:22:12.780Z,3.45
2022-11-17T06:24:42.781Z,3.45
2022-11-17T06:27:12.062Z,3.95
2022-11-17T06:29:44.059Z,4.90
2022-11-17T06:32:15.874Z,4.80
2022-11-17T06:34:44.303Z,5.63
2022-11-17T06:37:11.515Z,5.45
2022-11-17T06:39:38.310Z,4.88
2022-11-17T06:42:05.178Z,4.10
2022-11-17T06:44:31.879Z,3.42
2022-11-17T06:46:58.633Z,3.70
2022-11-17T06:49:25.360Z,3.55
2022-11-17T06:51:52.231Z,3.15
2022-11-17T06:54:18.945Z,3.22
2022-11-17T06:56:46.030Z,3.15
2022-11-17T06:59:12.773Z,2.95
2022-11-17T07:01:39.467Z,3.20
2022-11-17T07:04:06.725Z,2.50
2022-11-17T07:06:36.710Z,2.00
2022-11-17T07:09:04.282Z,2.30
2022-11-17T07:11:30.969Z,2.47
2022-11-17T07:13:58.275Z,2.13
2022-11-17T07:18:53.117Z,2.42
2022-11-17T07:21:19.813Z,2.63
2022-11-17T07:23:46.493Z,4.03
2022-11-17T07:26:14.339Z,4.13
2022-11-17T07:28:41.140Z,4.05
2022-11-17T07:31:09.080Z,3.20
2022-11-17T07:33:36.404Z,3.28
2022-11-17T07:38:33.290Z,2.72
2022-11-17T07:41:00.751Z,3.45
2022-11-17T07:45:54.947Z,12.25
2022-11-17T07:48:21.836Z,8.57
2022-11-17T07:53:15.670Z,5.53
2022-11-17T07:55:42.328Z,5.18
2022-11-17T07:58:09.222Z,4.80
2022-11-17T08:00:36.711Z,4.80
2022-11-17T08:03:04.422Z,4.90
2022-11-17T08:05:41.767Z,4.00
2022-11-17T08:08:10.336Z,3.67
2022-11-17T08:10:37.211Z,3.50
2022-11-17T08:13:04.295Z,4.25
2022-11-17T08:15:31.320Z,3.40
2022-11-17T08:17:59.802Z,5.10
2022-11-17T08:20:28.591Z,4.47
2022-11-17T08:22:56.153Z,4.50
2022-11-17T08:25:25.194Z,5.10
2022-11-17T08:27:58.098Z,4.15
2022-11-17T08:30:25.961Z,5.32
2022-11-17T08:32:53.924Z,6.18
2022-11-17T08:35:23.292Z,6.47
2022-11-17T08:37:50.059Z,5.35
2022-11-17T08:40:18.157Z,2.80
2022-11-17T08:42:45.272Z,5.70
2022-11-17T08:45:12.784Z,4.85
2022-11-17T08:47:39.630Z,6.03
2022-11-17T08:50:07.172Z,3.80
2022-11-17T08:52:33.904Z,3.72
2022-11-17T08:55:00.745Z,4.25
2022-11-17T08:57:29.772Z,3.75
2022-11-17T08:59:56.552Z,4.07
2022-11-17T09:02:23.326Z,5.05
2022-11-17T09:04:50.554Z,5.40
2022-11-17T09:07:17.807Z,4.88
2022-11-17T09:09:46.147Z,4.97
2022-11-17T09:12:12.876Z,4.25
2022-11-17T09:18:15.761Z,4.63
2022-11-17T09:20:46.149Z,3.25
2022-11-17T09:23:12.988Z,3.60
2022-11-17T09:25:39.917Z,3.85
2022-11-17T09:28:06.704Z,2.88
2022-11-17T09:30:33.543Z,3.25
2022-11-17T09:33:00.321Z,2.72
2022-11-17T09:35:27.004Z,2.70
2022-11-17T09:37:58.935Z,2.25
2022-11-17T09:40:25.620Z,2.05
2022-11-17T09:42:52.328Z,1.67
2022-11-17T09:45:31.721Z,2.67
2022-11-17T09:48:41.110Z,2.40
2022-11-17T09:51:13.734Z,2.58
2022-11-17T09:54:19.005Z,2.78
2022-11-17T09:56:47.514Z,2.80
2022-11-17T09:59:18.077Z,3.17
2022-11-17T10:01:44.821Z,2.85
2022-11-17T10:04:16.833Z,2.80
2022-11-17T10:06:46.406Z,2.53
2022-11-17T10:09:41.217Z,3.78
2022-11-17T10:12:21.060Z,3.22
2022-11-17T10:14:51.755Z,2.60
2022-11-17T10:17:18.526Z,3.35
2022-11-17T10:19:45.499Z,2.95
2022-11-17T10:22:24.109Z,3.05
2022-11-17T10:24:54.945Z,3.35
2022-11-17T10:27:34.152Z,3.97
2022-11-17T10:30:07.055Z,3.78
2022-11-17T10:32:48.184Z,4.22
2022-11-17T10:35:26.854Z,3.38
2022-11-17T10:38:13.025Z,4.35
2022-11-17T10:40:39.794Z,3.10
2022-11-17T10:43:12.495Z,3.25
2022-11-17T10:45:51.083Z,3.00
2022-11-17T10:48:34.009Z,3.00
2022-11-17T10:51:03.867Z,3.42
2022-11-17T10:53:46.296Z,3.38
2022-11-17T10:56:14.807Z,2.90
2022-11-17T10:59:11.594Z,3.00
2022-11-17T11:01:41.150Z,4.25
2022-11-17T11:04:27.072Z,3.05
2022-11-17T11:07:10.636Z,2.80
2022-11-17T11:09:51.032Z,2.50
2022-11-17T11:12:29.979Z,2.75
2022-11-17T11:15:00.345Z,2.45
2022-11-17T11:17:29.483Z,2.30
2022-11-17T11:19:56.617Z,2.47
2022-11-17T11:22:44.689Z,2.38
2022-11-17T11:25:37.536Z,3.95
2022-11-17T11:28:22.560Z,2.60
2022-11-17T11:31:01.915Z,2.90
2022-11-17T11:33:37.721Z,4.60
2022-11-17T11:36:30.926Z,3.28
2022-11-17T11:39:06.528Z,3.47
2022-11-17T11:42:10.442Z,3.22
2022-11-17T11:44:54.611Z,2.90
2022-11-17T11:47:50.191Z,3.38
2022-11-17T11:50:22.126Z,3.28
2022-11-17T11:52:54.166Z,3.60
2022-11-17T11:55:34.466Z,3.42
2022-11-17T11:58:05.043Z,3.30
2022-11-17T12:00:32.914Z,4.50
2022-11-17T12:03:13.160Z,2.60
2022-11-17T12:06:26.142Z,2.08
2022-11-17T12:09:06.518Z,2.55
2022-11-17T12:11:52.868Z,2.80
2022-11-17T12:14:19.732Z,2.42
2022-11-17T12:16:48.423Z,2.58
2022-11-17T12:19:49.967Z,3.15
2022-11-17T12:22:34.391Z,2.92
2022-11-17T12:25:29.235Z,2.92
2022-11-17T12:27:56.058Z,2.13
2022-11-17T12:30:34.650Z,2.55
2022-11-17T12:33:05.446Z,2.63
2022-11-17T12:35:33.509Z,2.50
2022-11-17T12:38:15.230Z,2.35
2022-11-17T12:40:52.611Z,2.53
2022-11-17T12:43:20.449Z,2.58
2022-11-17T12:45:59.115Z,2.58
2022-11-17T12:48:35.022Z,2.38
2022-11-17T12:51:13.748Z,2.88
2022-11-17T12:53:55.963Z,2.70
2022-11-17T12:56:50.093Z,2.72
2022-11-17T12:59:42.589Z,2.25
2022-11-17T13:02:37.331Z,2.38
2022-11-17T13:05:15.800Z,2.30
2022-11-17T13:07:42.572Z,2.67
2022-11-17T13:10:30.239Z,3.03
2022-11-17T13:13:13.340Z,2.30
2022-11-17T13:15:42.064Z,2.22
2022-11-17T13:18:11.672Z,2.67
2022-11-17T13:20:39.488Z,3.88
2022-11-17T13:23:23.624Z,3.97
2022-11-17T13:25:50.941Z,3.78
2022-11-17T13:30:55.179Z,3.20
2022-11-17T13:33:24.223Z,3.53
2022-11-17T13:36:27.091Z,2.90
2022-11-17T13:38:57.171Z,3.75
2022-11-17T13:41:25.748Z,4.10
2022-11-17T13:43:54.243Z,3.33
2022-11-17T13:46:21.140Z,3.30
2022-11-17T13:48:49.647Z,2.83
2022-11-17T13:51:39.150Z,3.22
2022-11-17T13:54:12.962Z,2.88
2022-11-17T13:57:07.308Z,2.88
2022-11-17T13:59:38.935Z,2.85
2022-11-17T14:02:19.263Z,4.32
2022-11-17T14:05:08.009Z,4.30
2022-11-17T14:07:37.371Z,4.38
2022-11-17T14:10:25.478Z,4.20
2022-11-17T14:13:20.341Z,4.35
2022-11-17T14:15:53.755Z,4.30
2022-11-17T14:18:28.475Z,4.20
2022-11-17T14:21:21.726Z,3.50
2022-11-17T14:23:48.402Z,4.25
2022-11-17T14:26:24.413Z,3.80
2022-11-17T14:28:52.657Z,4.45
2022-11-17T14:31:19.521Z,4.68
2022-11-17T14:33:46.510Z,4.97
2022-11-17T14:36:16.254Z,4.15
2022-11-17T14:38:44.714Z,5.13
2022-11-17T14:41:11.553Z,4.55
2022-11-17T14:43:38.296Z,6.47
2022-11-17T14:46:05.290Z,6.65
2022-11-17T14:48:32.009Z,7.32
2022-11-17T14:50:59.520Z,7.82
2022-11-17T14:53:26.720Z,7.72
2022-11-17T14:55:53.645Z,7.32
2022-11-17T14:58:20.635Z,6.38
2022-11-17T15:00:47.457Z,6.88
2022-11-17T15:03:14.219Z,6.60
2022-11-17T15:05:45.888Z,8.18
2022-11-17T15:08:13.308Z,6.93
2022-11-17T15:10:44.773Z,7.70
2022-11-17T15:13:12.259Z,7.53
2022-11-17T15:19:22.630Z,7.57
2022-11-17T15:21:49.382Z,8.13
2022-11-17T15:24:16.218Z,6.20
2022-11-17T15:26:43.135Z,5.95
2022-11-17T15:29:15.051Z,5.75
2022-11-17T15:31:42.321Z,6.03
2022-11-17T15:34:18.595Z,5.57
2022-11-17T15:36:47.033Z,4.70
2022-11-17T15:39:14.419Z,10.23
2022-11-17T15:41:41.292Z,7.65
2022-11-17T15:44:08.042Z,10.30
2022-11-17T15:46:34.911Z,8.95
2022-11-17T15:49:01.642Z,6.45
2022-11-17T15:51:28.973Z,6.88
2022-11-17T15:56:36.176Z,6.18
2022-11-17T15:59:05.069Z,4.85
2022-11-17T16:01:39.016Z,4.68
2022-11-17T16:04:15.464Z,4.30
2022-11-17T16:06:44.136Z,5.22
2022-11-17T16:09:12.224Z,4.80
2022-11-17T16:11:39.454Z,6.38
2022-11-17T16:16:35.702Z,9.43
2022-11-17T16:19:03.042Z,7.70
2022-11-17T16:23:57.728Z,7.20
2022-11-17T16:26:26.133Z,8.23
2022-11-17T16:28:57.597Z,9.60
2022-11-17T16:31:26.649Z,15.98
2022-11-17T16:33:56.444Z,11.38
2022-11-17T16:36:25.591Z,11.80
2022-11-17T16:39:02.081Z,11.63
2022-11-17T16:41:32.218Z,13.50
2022-11-17T16:44:00.025Z,16.15
2022-11-17T16:46:29.154Z,17.50
2022-11-17T16:48:56.628Z,12.35
2022-11-17T16:51:23.672Z,10.65
2022-11-17T16:53:56.375Z,13.05
2022-11-17T16:56:23.243Z,15.85
2022-11-17T16:58:50.601Z,16.85
2022-11-17T17:03:45.869Z,13.27
2022-11-17T17:06:15.449Z,15.85
2022-11-17T17:08:42.350Z,17.15
2022-11-17T17:11:12.045Z,16.75
2022-11-17T17:13:39.616Z,13.07
2022-11-17T17:16:08.579Z,13.30
2022-11-17T17:18:36.348Z,14.40
2022-11-17T17:21:03.726Z,14.05
2022-11-17T17:26:05.181Z,18.50
2022-11-17T17:28:33.284Z,22.80
2022-11-17T17:31:00.579Z,24.20
2022-11-17T17:36:01.965Z,17.83
2022-11-17T17:38:28.741Z,14.63
2022-11-17T17:40:55.427Z,10.50
2022-11-17T17:43:22.444Z,16.48
2022-11-17T17:45:49.130Z,19.55
2022-11-17T17:48:15.843Z,15.82
2022-11-17T17:50:42.712Z,20.75
2022-11-17T17:53:09.384Z,37.08
2022-11-17T17:55:36.101Z,27.52
2022-11-17T17:58:03.052Z,16.58
2022-11-17T18:00:29.742Z,11.13
2022-11-17T18:02:56.480Z,11.02
2022-11-17T18:05:23.201Z,13.35
2022-11-17T18:07:49.992Z,11.70
2022-11-17T18:10:17.180Z,14.35
2022-11-17T18:12:43.936Z,13.02
2022-11-17T18:15:11.125Z,10.45
2022-11-17T18:17:37.818Z,9.05
2022-11-17T18:20:04.909Z,10.48
2022-11-17T18:22:31.601Z,9.57
2022-11-17T18:24:58.544Z,6.72
2022-11-17T18:27:25.222Z,9.00
2022-11-17T18:29:51.952Z,15.93
2022-11-17T18:32:18.660Z,16.55
2022-11-17T18:34:45.331Z,10.65
2022-11-17T18:37:12.015Z,11.82
2022-11-17T18:39:38.694Z,15.98
2022-11-17T18:42:05.501Z,22.25
2022-11-17T18:44:32.257Z,21.58
2022-11-17T18:47:02.758Z,23.38
2022-11-17T18:49:30.800Z,22.90
2022-11-17T18:51:57.517Z,17.02
2022-11-17T18:54:24.206Z,23.38
2022-11-17T18:56:50.963Z,15.95
2022-11-17T18:59:18.565Z,16.08
2022-11-17T19:01:45.505Z,13.10
2022-11-17T19:04:14.303Z,10.07
2022-11-17T19:06:41.079Z,9.82
2022-11-17T19:09:08.224Z,8.55
2022-11-17T19:11:35.071Z,18.27
2022-11-17T19:14:02.972Z,28.33
2022-11-17T19:16:30.194Z,23.45
2022-11-17T19:18:57.566Z,36.03
2022-11-17T19:23:58.147Z,21.33
2022-11-17T19:26:27.375Z,20.83
2022-11-17T19:28:58.779Z,16.95
2022-11-17T19:31:26.322Z,17.05
2022-11-17T19:33:54.323Z,16.63
2022-11-17T19:36:26.369Z,17.40
2022-11-17T19:38:54.635Z,14.75
2022-11-17T19:41:26.666Z,9.43
2022-11-17T19:43:57.737Z,9.35
2022-11-17T19:46:25.781Z,9.55
2022-11-17T19:48:53.112Z,9.25
2022-11-17T19:53:52.608Z,10.35
2022-11-17T19:56:20.647Z,12.35
2022-11-17T19:58:48.176Z,11.18
2022-11-17T20:01:18.272Z,11.27
2022-11-17T20:03:46.187Z,10.40
2022-11-17T20:06:15.888Z,10.52
2022-11-17T20:08:43.245Z,10.88
2022-11-17T20:13:41.605Z,7.80
2022-11-17T20:16:12.684Z,8.77
2022-11-17T20:18:41.557Z,10.30
2022-11-17T20:21:09.667Z,11.70
2022-11-17T20:23:37.975Z,12.38
2022-11-17T20:26:10.563Z,13.00
2022-11-17T20:28:38.404Z,11.88
2022-11-17T20:31:19.968Z,12.88
2022-11-17T20:33:47.829Z,13.18
2022-11-17T20:36:19.828Z,12.55
2022-11-17T20:38:54.812Z,10.80
2022-11-17T20:41:23.302Z,10.23
2022-11-17T20:43:54.940Z,9.95
2022-11-17T20:46:22.780Z,11.60
2022-11-17T20:48:50.253Z,10.43
2022-11-17T20:51:19.380Z,9.25
2022-11-17T20:53:46.629Z,8.23
2022-11-17T20:56:15.920Z,9.75
2022-11-17T20:58:42.732Z,10.05
2022-11-17T21:01:11.979Z,12.02
2022-11-17T21:03:38.755Z,11.52
2022-11-17T21:06:05.984Z,9.57
2022-11-17T21:08:36.384Z,8.20
2022-11-17T21:11:06.121Z,7.10
2022-11-17T21:13:34.496Z,6.22
2022-11-17T21:16:05.109Z,6.10
2022-11-17T21:18:32.212Z,6.15
2022-11-17T21:21:00.171Z,7.30
2022-11-17T21:23:27.717Z,6.82
2022-11-17T21:25:54.523Z,7.82
2022-11-17T21:28:21.554Z,7.88
2022-11-17T21:30:48.466Z,8.60
2022-11-17T21:33:15.132Z,8.30
2022-11-17T21:35:41.846Z,9.27
2022-11-17T21:38:10.652Z,9.38
2022-11-17T21:40:37.384Z,8.70
2022-11-17T21:43:04.456Z,8.13
2022-11-17T21:45:32.823Z,8.30
2022-11-17T21:47:59.740Z,8.48
2022-11-17T21:50:26.520Z,8.32
2022-11-17T21:52:53.244Z,7.93
2022-11-17T21:55:19.954Z,8.60
2022-11-17T21:57:50.541Z,6.13
2022-11-17T22:00:17.859Z,5.70
2022-11-17T22:05:11.489Z,7.60
2022-11-17T22:07:38.244Z,7.20
2022-11-17T22:10:05.527Z,6.43
2022-11-17T22:12:32.188Z,4.82
2022-11-17T22:14:58.849Z,5.40
2022-11-17T22:17:25.504Z,4.15
2022-11-17T22:19:52.242Z,5.03
2022-11-17T22:22:18.906Z,5.00
2022-11-17T22:24:49.614Z,5.40
2022-11-17T22:27:16.727Z,4.32
2022-11-17T22:29:43.531Z,4.20
2022-11-17T22:32:10.255Z,3.90
2022-11-17T22:34:36.994Z,3.90
2022-11-17T22:37:03.760Z,3.75
2022-11-17T22:39:30.414Z,3.42
2022-11-17T22:41:57.238Z,3.05
2022-11-17T22:44:23.944Z,2.15
2022-11-17T22:46:50.796Z,2.58
2022-11-17T22:49:17.816Z,2.70
2022-11-17T22:52:03.316Z,2.75
2022-11-17T22:54:31.066Z,2.83
2022-11-17T22:56:58.299Z,3.20
2022-11-17T22:59:29.194Z,4.05
2022-11-17T23:01:56.118Z,3.90
2022-11-17T23:04:23.277Z,4.38
2022-11-17T23:06:49.971Z,2.72
2022-11-17T23:09:17.231Z,2.65
2022-11-17T23:11:44.404Z,2.53
2022-11-17T23:14:12.963Z,2.55
2022-11-17T23:16:40.515Z,2.67
2022-11-17T23:19:09.505Z,2.40
2022-11-17T23:21:36.248Z,2.97
2022-11-17T23:24:04.275Z,3.38
2022-11-17T23:26:31.011Z,3.20
2022-11-17T23:28:58.233Z,3.20
2022-11-17T23:31:27.150Z,3.47
2022-11-17T23:33:54.098Z,4.63
2022-11-17T23:36:22.347Z,4.47
2022-11-17T23:38:50.243Z,4.72
2022-11-17T23:41:19.341Z,3.58
2022-11-17T23:43:46.622Z,5.07
2022-11-17T23:46:16.254Z,4.90
2022-11-17T23:48:44.176Z,4.65
2022-11-17T23:51:17.381Z,4.18
2022-11-17T23:53:44.412Z,3.92
2022-11-17T23:56:11.268Z,3.95
2022-11-17T23:58:38.271Z,3.70
